aviador You're here:

KCBE Decoded Metar

CUMBERLAND REG in MD, USA
Report Time2017-05-23 20:13:00
UTC Time2017-05-23 20:32:26
Flight Rules vfr VFR
Wind110° at 04 kt
W.Decomp.*RWY 11: 3.9 kt HW 0.7 kt RCW
RWY 05: 1.4 kt HW 3.8 kt RCW
W.Rank110° ranks 30
Current wind is below 110° avg. (4.4)
Visibility9999 m
Phenomena:N/A
Clouds:N/A
Expected CloudBase > 3,600 ft AGL from Temp-Dew spread
CeilingNone
Temp19°C (ISA +6)
Dew Point10°C (56% RH)
AAT17.6°C
QNH1012 hPa
Density Alt1,624 ft
Elevation774 ft
Report Wrong Elevation
Raw Report
KCBE 232013Z AUTO 11004KT 10SM CLR 19/10 A2988 RMK AO1=

Extra information for KCBE:More info

Metar Taf Metar & Taf Last 4 Metars F.Rules Stats Wind Profile Meteogram Temp Stats Airport Information Weather charts Add Link Nearby VenuesMetar ALERT Operation Metar Decoded Social comments

AIRNAV info for KCBE